Time;durP1;ratioP1;P1;durP2;ratioP2;P2;SDS_P1;SDS_P2;PMS_P1;PMS_P2;Temp;Humidity;BMP_temperature;BMP_pressure;BME280_temperature;BME280_humidity;BME280_pressure;Samples;Min_cycle;Max_cycle;Signal;HPM_P1;HPM_P2
2022/08/14 00:00:14;;;;;;;3.10;2.47;;;29.00;40.10;;;;;;4995786;28;20483;-81
2022/08/14 00:02:43;;;;;;;3.03;2.55;;;29.10;40.30;;;;;;4996446;28;20046;-80
2022/08/14 00:05:10;;;;;;;3.22;2.60;;;29.00;40.20;;;;;;4996158;28;20029;-80
2022/08/14 00:07:37;;;;;;;2.70;2.33;;;29.00;40.20;;;;;;4979933;28;20034;-81
2022/08/14 00:10:05;;;;;;;2.97;2.58;;;29.00;40.30;;;;;;5014077;28;20026;-80
2022/08/14 00:12:33;;;;;;;2.85;2.35;;;29.00;40.30;;;;;;4996010;28;20033;-81
2022/08/14 00:15:01;;;;;;;3.47;2.67;;;29.00;40.40;;;;;;4996062;28;20026;-81
2022/08/14 00:17:31;;;;;;;3.28;2.60;;;28.90;40.40;;;;;;5013606;28;20493;-80
2022/08/14 00:19:56;;;;;;;2.88;2.50;;;28.90;40.50;;;;;;4964044;28;20054;-79
2022/08/14 00:22:22;;;;;;;2.80;2.50;;;28.90;40.50;;;;;;4979718;28;20117;-81
2022/08/14 00:24:48;;;;;;;3.78;2.58;;;28.80;40.40;;;;;;4996374;28;20030;-80
2022/08/14 00:27:14;;;;;;;3.22;2.55;;;28.80;40.50;;;;;;4995900;28;20382;-81
2022/08/14 00:29:39;;;;;;;3.22;2.60;;;28.80;40.60;;;;;;5013708;28;20061;-81
2022/08/14 00:32:06;;;;;;;3.53;2.60;;;28.80;40.60;;;;;;4979417;28;20046;-80
2022/08/14 00:34:31;;;;;;;3.72;2.83;;;28.70;40.60;;;;;;5013650;28;20108;-80
2022/08/14 00:37:04;;;;;;;3.28;2.53;;;28.70;40.60;;;;;;4981081;28;20034;-81
2022/08/14 00:39:32;;;;;;;3.25;2.60;;;28.70;40.70;;;;;;5015957;28;20045;-80
2022/08/14 00:41:57;;;;;;;3.40;2.58;;;28.70;40.70;;;;;;4984195;28;20041;-80
2022/08/14 00:44:23;;;;;;;3.10;2.75;;;28.60;40.70;;;;;;4999368;28;20037;-80
2022/08/14 00:46:49;;;;;;;4.78;2.95;;;28.60;40.70;;;;;;5000117;28;20476;-80
2022/08/14 00:49:15;;;;;;;3.30;3.00;;;28.60;40.80;;;;;;4967868;28;20470;-80
2022/08/14 00:51:42;;;;;;;3.50;2.42;;;28.60;40.80;;;;;;4983892;28;20073;-80
2022/08/14 00:54:08;;;;;;;2.90;2.40;;;28.50;40.80;;;;;;5016709;28;20494;-80
2022/08/14 00:56:36;;;;;;;3.92;2.92;;;28.50;40.90;;;;;;4983349;28;20029;-80
2022/08/14 00:59:03;;;;;;;3.22;2.90;;;28.50;40.90;;;;;;5017419;28;20034;-79
2022/08/14 01:01:29;;;;;;;3.78;2.85;;;28.50;41.00;;;;;;4967587;28;20033;-79
2022/08/14 01:04:00;;;;;;;3.65;2.80;;;28.50;41.00;;;;;;4999959;28;20112;-81
2022/08/14 01:06:27;;;;;;;3.35;2.72;;;28.40;41.00;;;;;;4999530;28;20421;-80
2022/08/14 01:08:55;;;;;;;2.95;2.55;;;28.40;41.00;;;;;;5016996;28;20116;-80
2022/08/14 01:11:21;;;;;;;3.63;2.85;;;28.40;41.10;;;;;;4999270;28;20126;-79
2022/08/14 01:13:51;;;;;;;3.55;2.85;;;28.40;41.10;;;;;;4999429;28;20026;-79
2022/08/14 01:16:19;;;;;;;3.40;2.78;;;28.30;41.10;;;;;;4998984;28;20033;-80
2022/08/14 01:21:36;;;;;;;2.92;2.53;;;28.30;41.30;;;;;;4999289;28;20038;-81
2022/08/14 01:24:02;;;;;;;3.70;2.83;;;28.20;41.30;;;;;;4999002;28;20037;-81
2022/08/14 01:26:29;;;;;;;3.22;2.80;;;28.20;41.30;;;;;;4999269;28;20058;-79
2022/08/14 01:28:58;;;;;;;3.30;2.60;;;28.20;41.30;;;;;;4999263;28;20026;-80
2022/08/14 01:31:30;;;;;;;3.28;2.80;;;28.20;41.40;;;;;;4982777;28;20085;-80
2022/08/14 01:33:58;;;;;;;3.78;3.10;;;28.10;41.40;;;;;;4998692;28;20033;-80
2022/08/14 01:36:27;;;;;;;4.07;3.25;;;28.10;41.40;;;;;;4998673;28;20064;-81
2022/08/14 01:38:58;;;;;;;3.47;2.72;;;28.10;41.50;;;;;;5016031;28;20022;-80
2022/08/14 01:41:25;;;;;;;3.90;2.97;;;28.10;41.50;;;;;;4982328;28;20026;-80
2022/08/14 01:44:00;;;;;;;3.38;2.63;;;28.00;41.50;;;;;;5015876;28;20030;-81
2022/08/14 01:46:34;;;;;;;3.67;2.60;;;28.00;41.60;;;;;;4995243;28;20141;-80
2022/08/14 01:49:02;;;;;;;4.65;2.92;;;28.00;41.60;;;;;;4996500;28;20038;-80
2022/08/14 01:51:29;;;;;;;3.78;3.08;;;27.90;41.60;;;;;;4962617;28;20039;-80
2022/08/14 01:54:00;;;;;;;3.80;3.03;;;27.90;41.60;;;;;;4995347;28;20034;-80
2022/08/14 01:56:39;;;;;;;2.92;2.63;;;27.90;41.70;;;;;;4996095;28;20033;-80
2022/08/14 01:59:20;;;;;;;3.55;2.78;;;27.90;42.40;;;;;;4962946;28;20121;-80
2022/08/14 02:01:49;;;;;;;3.38;2.75;;;27.80;41.80;;;;;;4996548;28;20092;-80
2022/08/14 02:04:20;;;;;;;4.05;3.08;;;27.80;41.80;;;;;;4979036;28;20463;-81
2022/08/14 02:06:49;;;;;;;3.20;2.80;;;27.80;41.90;;;;;;4995966;28;20026;-80
2022/08/14 02:09:16;;;;;;;4.13;3.00;;;27.70;41.80;;;;;;4996553;28;20113;-80
2022/08/14 02:11:43;;;;;;;3.92;2.83;;;27.70;41.80;;;;;;4979269;28;20054;-81
2022/08/14 02:14:12;;;;;;;3.50;2.88;;;27.70;41.90;;;;;;4994608;28;20045;-81
2022/08/14 02:16:41;;;;;;;4.15;3.08;;;27.70;42.00;;;;;;4996445;28;20039;-83
2022/08/14 02:19:22;;;;;;;5.82;3.10;;;27.60;42.00;;;;;;4979028;28;20026;-82
2022/08/14 02:21:53;;;;;;;3.83;3.08;;;27.60;42.10;;;;;;5010701;28;20030;-83
2022/08/14 02:24:23;;;;;;;4.18;3.10;;;27.60;42.10;;;;;;5015816;28;20113;-84
2022/08/14 02:26:50;;;;;;;3.17;2.55;;;27.60;42.10;;;;;;5001377;28;20475;-83
2022/08/14 02:29:22;;;;;;;3.45;2.80;;;27.50;42.10;;;;;;4962557;28;20061;-83
2022/08/14 02:31:54;;;;;;;4.28;2.83;;;27.50;42.20;;;;;;4978657;28;20041;-84
2022/08/14 02:34:33;;;;;;;3.33;2.85;;;27.50;42.20;;;;;;4995787;28;20486;-82
2022/08/14 02:37:12;;;;;;;4.07;3.17;;;27.40;42.20;;;;;;4995925;28;20106;-83
2022/08/14 02:39:43;;;;;;;3.67;2.85;;;27.40;42.30;;;;;;4963036;28;20085;-82
2022/08/14 02:42:12;;;;;;;3.75;2.97;;;27.40;42.30;;;;;;4994767;28;20038;-84
2022/08/14 02:44:42;;;;;;;3.95;3.17;;;27.40;42.30;;;;;;4995745;28;20101;-83
2022/08/14 02:47:10;;;;;;;3.22;2.88;;;27.30;42.30;;;;;;4994148;28;20451;-83
2022/08/14 02:49:36;;;;;;;4.38;2.95;;;27.30;42.30;;;;;;4978281;28;20030;-84
2022/08/14 02:52:05;;;;;;;4.80;3.10;;;27.30;42.40;;;;;;4977845;28;20045;-83
2022/08/14 02:54:33;;;;;;;3.47;2.88;;;27.20;42.40;;;;;;4994702;28;20026;-83
2022/08/14 02:56:59;;;;;;;3.85;3.10;;;27.20;42.40;;;;;;4994140;28;20046;-83
2022/08/14 02:59:30;;;;;;;4.03;3.17;;;27.20;42.40;;;;;;4978213;28;20036;-83
2022/08/14 03:01:56;;;;;;;3.47;2.95;;;27.20;43.10;;;;;;4978419;28;20142;-84
2022/08/14 03:04:23;;;;;;;3.75;3.15;;;27.20;42.50;;;;;;4978613;28;20084;-83
2022/08/14 03:06:52;;;;;;;3.50;2.80;;;27.10;42.50;;;;;;4995215;28;20050;-84
2022/08/14 03:09:17;;;;;;;4.10;3.35;;;27.10;42.50;;;;;;4995403;28;20099;-84
2022/08/14 03:11:46;;;;;;;3.70;3.08;;;27.10;42.50;;;;;;4978881;28;20065;-83
2022/08/14 03:14:13;;;;;;;3.47;2.95;;;27.00;42.60;;;;;;4995792;28;20038;-84
2022/08/14 03:16:40;;;;;;;4.25;3.22;;;27.10;42.70;;;;;;4994089;28;20465;-83
2022/08/14 03:19:07;;;;;;;4.10;3.20;;;27.00;42.60;;;;;;4993920;28;20133;-84
2022/08/14 03:21:35;;;;;;;4.00;3.13;;;27.00;42.70;;;;;;4961644;28;20031;-84
2022/08/14 03:24:10;;;;;;;3.97;3.10;;;27.00;42.80;;;;;;4995171;28;20109;-84
2022/08/14 03:26:41;;;;;;;3.40;2.90;;;27.00;42.80;;;;;;4993728;28;20041;-86
2022/08/14 03:29:12;;;;;;;4.00;3.03;;;26.90;42.80;;;;;;4977903;28;20034;-84
2022/08/14 03:31:42;;;;;;;3.70;3.10;;;26.90;42.90;;;;;;4993767;28;20463;-82
2022/08/14 03:34:10;;;;;;;3.88;3.10;;;26.90;42.90;;;;;;4977669;28;20054;-83
2022/08/14 03:36:39;;;;;;;3.58;2.92;;;26.80;42.90;;;;;;4994694;28;20031;-83
2022/08/14 03:39:08;;;;;;;3.70;3.15;;;26.80;43.00;;;;;;4977089;28;20034;-85
2022/08/14 03:41:34;;;;;;;3.95;3.22;;;26.80;43.00;;;;;;4994781;28;20030;-84
2022/08/14 03:44:03;;;;;;;4.65;3.55;;;26.80;43.10;;;;;;4994343;28;20027;-83
2022/08/14 03:46:37;;;;;;;3.85;3.15;;;26.80;43.10;;;;;;4993129;28;20133;-83
2022/08/14 03:49:05;;;;;;;4.30;3.08;;;26.70;43.10;;;;;;4993727;28;20026;-83
2022/08/14 03:51:32;;;;;;;4.72;3.30;;;26.70;43.20;;;;;;4960987;28;20528;-84
2022/08/14 03:54:02;;;;;;;4.22;3.40;;;26.70;43.30;;;;;;4994227;28;20145;-83
2022/08/14 03:56:29;;;;;;;3.85;3.10;;;26.60;43.20;;;;;;4994810;28;20026;-83
2022/08/14 03:58:57;;;;;;;4.07;3.15;;;26.60;43.20;;;;;;4977106;28;20351;-83
2022/08/14 04:01:25;;;;;;;4.10;3.15;;;26.60;43.30;;;;;;4995231;28;20040;-83
2022/08/14 04:03:53;;;;;;;4.15;3.25;;;26.60;43.40;;;;;;4993278;28;20037;-85
2022/08/14 04:06:23;;;;;;;3.80;3.20;;;26.50;43.40;;;;;;4993204;28;20455;-82
2022/08/14 04:08:50;;;;;;;3.83;3.28;;;26.50;43.50;;;;;;4993998;28;20030;-84
2022/08/14 04:11:17;;;;;;;3.78;3.30;;;26.50;43.50;;;;;;4994021;28;20042;-82
2022/08/14 04:13:44;;;;;;;4.15;3.30;;;26.50;43.60;;;;;;4978193;28;20106;-82
2022/08/14 04:16:15;;;;;;;4.28;3.50;;;26.50;43.60;;;;;;4967375;28;20046;-83
2022/08/14 04:18:44;;;;;;;3.55;2.80;;;26.40;43.60;;;;;;4982333;28;20049;-87
2022/08/14 04:21:11;;;;;;;4.45;3.65;;;26.40;43.60;;;;;;5006967;28;20046;-85
2022/08/14 04:23:37;;;;;;;4.68;3.42;;;26.40;43.60;;;;;;4994136;28;20029;-84
2022/08/14 04:26:07;;;;;;;3.40;2.85;;;26.40;43.70;;;;;;4960554;28;20081;-83
2022/08/14 04:28:35;;;;;;;4.22;3.28;;;26.30;43.70;;;;;;4992751;28;20105;-83
2022/08/14 04:31:02;;;;;;;4.30;3.40;;;26.30;43.70;;;;;;4992644;28;20046;-86
2022/08/14 04:33:27;;;;;;;3.85;3.13;;;26.30;43.70;;;;;;4993168;28;20098;-82
2022/08/14 04:35:54;;;;;;;4.35;3.38;;;26.30;43.80;;;;;;4976641;28;20109;-85
2022/08/14 04:43:54;;;;;;;4.13;3.42;;;26.20;43.80;;;;;;4993975;28;20035;-84
2022/08/14 04:46:22;;;;;;;4.35;3.47;;;26.20;43.90;;;;;;4992391;28;20054;-83
2022/08/14 04:48:50;;;;;;;4.25;3.35;;;26.20;44.00;;;;;;4993365;28;20494;-84
2022/08/14 04:51:25;;;;;;;4.03;3.15;;;26.10;43.90;;;;;;4993893;28;20050;-82
2022/08/14 04:53:52;;;;;;;4.18;3.60;;;26.10;44.00;;;;;;4976696;28;20045;-83
2022/08/14 04:56:22;;;;;;;4.53;3.55;;;26.10;44.00;;;;;;4992682;28;20490;-82
2022/08/14 04:58:50;;;;;;;3.95;3.30;;;26.10;44.20;;;;;;4993748;28;20026;-83
2022/08/14 05:01:16;;;;;;;5.10;3.70;;;26.00;44.10;;;;;;4992223;28;20143;-82
2022/08/14 05:03:42;;;;;;;4.28;3.55;;;26.00;44.10;;;;;;4992268;28;20031;-83
2022/08/14 05:06:11;;;;;;;4.70;3.80;;;26.00;44.10;;;;;;4976364;28;20054;-82
2022/08/14 05:08:37;;;;;;;3.97;3.20;;;26.00;44.30;;;;;;4992266;28;20034;-84
2022/08/14 05:11:06;;;;;;;3.95;3.20;;;26.00;44.20;;;;;;4975982;28;20045;-84
2022/08/14 05:13:33;;;;;;;5.22;3.72;;;26.00;44.30;;;;;;4992425;28;20037;-83
2022/08/14 05:16:00;;;;;;;4.63;3.75;;;25.90;44.20;;;;;;4992146;28;20448;-82
2022/08/14 05:18:31;;;;;;;5.13;3.47;;;25.90;44.30;;;;;;4993540;28;20027;-83
2022/08/14 05:20:59;;;;;;;4.25;3.30;;;25.90;44.40;;;;;;4992299;28;20472;-84
2022/08/14 05:23:28;;;;;;;4.90;3.90;;;25.90;44.40;;;;;;4976290;28;20020;-83
2022/08/14 05:26:02;;;;;;;4.18;3.40;;;25.90;44.50;;;;;;4995954;28;20026;-84
2022/08/14 05:28:34;;;;;;;4.47;3.58;;;25.80;44.40;;;;;;4980057;28;20419;-85
2022/08/14 05:31:07;;;;;;;3.65;3.20;;;25.80;44.40;;;;;;4996691;28;20121;-84
2022/08/14 05:33:35;;;;;;;3.80;3.03;;;25.80;44.60;;;;;;4996533;28;20038;-82
2022/08/14 05:36:04;;;;;;;4.15;3.47;;;25.80;44.50;;;;;;4963780;28;20058;-84
2022/08/14 05:38:36;;;;;;;4.38;3.50;;;25.80;44.60;;;;;;4979642;28;20041;-83
2022/08/14 05:41:05;;;;;;;4.78;3.58;;;25.70;44.50;;;;;;4979688;28;20034;-83
2022/08/14 05:43:31;;;;;;;4.88;3.47;;;25.70;44.60;;;;;;4997110;28;20030;-83
2022/08/14 05:45:58;;;;;;;4.68;3.88;;;25.70;44.60;;;;;;4979794;28;20033;-84
2022/08/14 05:48:25;;;;;;;4.28;3.50;;;25.70;44.70;;;;;;4982606;28;20030;-83
2022/08/14 05:50:53;;;;;;;4.60;3.80;;;25.70;44.70;;;;;;5016137;28;20042;-83
2022/08/14 05:53:20;;;;;;;4.78;3.85;;;25.70;44.80;;;;;;4985121;28;20458;-83
2022/08/14 05:55:47;;;;;;;4.28;3.63;;;25.70;44.80;;;;;;4985093;28;20121;-82
2022/08/14 05:58:12;;;;;;;4.97;3.67;;;25.70;44.80;;;;;;5020389;28;20030;-83
2022/08/14 06:00:41;;;;;;;4.25;3.40;;;25.70;44.90;;;;;;5001192;28;20036;-84
2022/08/14 06:03:16;;;;;;;4.70;3.65;;;25.70;45.00;;;;;;4984458;28;20455;-84
2022/08/14 06:05:47;;;;;;;4.65;3.78;;;25.60;45.00;;;;;;5001922;28;20036;-83
2022/08/14 06:08:23;;;;;;;4.18;3.50;;;25.60;45.00;;;;;;4985827;28;20034;-84
2022/08/14 06:10:50;;;;;;;4.00;3.47;;;25.60;45.10;;;;;;4986373;28;20471;-84
2022/08/14 06:13:16;;;;;;;4.78;3.95;;;25.60;45.10;;;;;;5013171;28;20026;-84
2022/08/14 06:15:42;;;;;;;4.32;3.53;;;25.60;45.10;;;;;;4999149;28;20042;-83
2022/08/14 06:18:08;;;;;;;4.60;3.65;;;25.60;45.20;;;;;;4996804;28;20029;-85
2022/08/14 06:20:34;;;;;;;4.75;3.60;;;25.60;45.20;;;;;;5004794;28;20025;-83
2022/08/14 06:23:00;;;;;;;4.72;3.75;;;25.60;45.30;;;;;;4983597;28;20097;-85
2022/08/14 06:25:26;;;;;;;4.38;3.70;;;25.60;45.30;;;;;;5016164;28;20026;-85
2022/08/14 06:27:53;;;;;;;4.63;3.50;;;25.60;45.30;;;;;;4982396;28;20033;-85
2022/08/14 06:30:22;;;;;;;4.50;3.50;;;25.60;45.40;;;;;;4998188;28;20038;-86
2022/08/14 06:32:49;;;;;;;3.92;3.38;;;25.60;45.40;;;;;;4998570;28;20065;-85
2022/08/14 06:35:19;;;;;;;5.68;3.90;;;25.60;45.40;;;;;;4998170;28;20481;-81
2022/08/14 06:37:57;;;;;;;4.85;3.90;;;25.60;45.40;;;;;;4997465;28;20033;-80
2022/08/14 06:40:31;;;;;;;4.97;3.55;;;25.60;45.60;;;;;;5015113;28;20037;-81
2022/08/14 06:43:03;;;;;;;4.18;3.47;;;25.60;45.50;;;;;;4997615;28;20025;-82
2022/08/14 06:45:30;;;;;;;4.10;3.22;;;25.60;45.50;;;;;;4981926;28;20463;-82
2022/08/14 06:47:56;;;;;;;4.00;3.33;;;25.60;45.50;;;;;;4998015;28;20050;-84
2022/08/14 06:50:24;;;;;;;4.75;3.55;;;25.60;45.60;;;;;;4981321;28;20073;-83
2022/08/14 06:52:49;;;;;;;4.53;3.70;;;25.60;45.60;;;;;;4997490;28;20075;-83
2022/08/14 06:55:19;;;;;;;4.85;3.78;;;25.50;45.60;;;;;;4997458;28;20120;-83
2022/08/14 06:57:47;;;;;;;4.95;3.97;;;25.60;45.70;;;;;;4997557;28;20119;-81
2022/08/14 07:00:39;;;;;;;4.03;3.40;;;25.50;45.60;;;;;;4981096;28;20080;-84
2022/08/14 07:05:50;;;;;;;;;;;25.60;45.70;;;;;;5000689;28;20038;-82
2022/08/14 07:08:17;;;;;;;3.92;3.22;;;25.60;45.60;;;;;;4965572;28;19916;-81
2022/08/14 07:10:50;;;;;;;5.47;3.50;;;25.50;45.60;;;;;;4996993;28;20041;-82
2022/08/14 07:13:20;;;;;;;4.30;3.50;;;25.60;45.80;;;;;;4981059;28;20018;-83
2022/08/14 07:15:50;;;;;;;4.28;3.50;;;25.60;45.80;;;;;;4996899;28;20026;-82
2022/08/14 07:18:26;;;;;;;4.20;3.33;;;25.60;45.90;;;;;;5014682;28;20030;-81
2022/08/14 07:20:53;;;;;;;3.78;3.30;;;25.60;45.90;;;;;;5014589;28;20037;-81
2022/08/14 07:23:22;;;;;;;4.65;3.83;;;25.60;45.90;;;;;;4997077;28;20058;-82
2022/08/14 07:25:49;;;;;;;4.70;3.70;;;25.60;45.90;;;;;;4980838;28;20040;-80
2022/08/14 07:28:18;;;;;;;4.18;3.40;;;25.60;45.90;;;;;;5014383;28;20096;-86
2022/08/14 07:30:44;;;;;;;3.90;3.33;;;25.60;45.90;;;;;;4981073;28;20033;-84
2022/08/14 07:33:12;;;;;;;3.95;3.40;;;25.60;45.90;;;;;;5001594;28;20549;-85
2022/08/14 07:35:39;;;;;;;4.53;3.83;;;25.60;46.00;;;;;;4986887;28;20048;-85
2022/08/14 07:38:06;;;;;;;4.88;3.88;;;25.60;46.10;;;;;;4997576;28;20034;-84
2022/08/14 07:40:33;;;;;;;4.65;4.15;;;25.70;46.20;;;;;;4981044;28;20042;-84
2022/08/14 07:43:00;;;;;;;4.38;3.92;;;25.70;46.20;;;;;;4981215;28;20113;-85
2022/08/14 07:45:27;;;;;;;4.10;3.33;;;25.60;46.20;;;;;;4981086;28;20409;-84
2022/08/14 07:47:56;;;;;;;4.43;3.70;;;25.70;46.30;;;;;;5014561;28;20049;-84
2022/08/14 07:50:23;;;;;;;4.50;3.60;;;25.70;46.30;;;;;;5014038;28;20038;-83
2022/08/14 07:52:48;;;;;;;4.72;4.00;;;25.70;46.30;;;;;;4996886;28;20105;-83
2022/08/14 07:55:16;;;;;;;5.15;4.07;;;25.70;46.30;;;;;;4980636;28;20060;-82
2022/08/14 07:57:43;;;;;;;4.18;3.45;;;25.70;46.30;;;;;;4996667;28;20034;-83
2022/08/14 08:00:12;;;;;;;4.43;3.83;;;25.80;46.40;;;;;;5014183;28;20033;-83
2022/08/14 08:02:40;;;;;;;4.70;3.78;;;25.80;46.50;;;;;;4998433;28;20022;-83
2022/08/14 08:05:08;;;;;;;4.85;3.67;;;25.80;46.50;;;;;;5017092;28;20040;-87
2022/08/14 08:07:35;;;;;;;4.60;3.78;;;25.80;46.50;;;;;;5009438;28;20030;-83
2022/08/14 08:10:31;;;;;;;4.47;3.72;;;25.80;46.50;;;;;;5016395;28;20022;-81
2022/08/14 08:13:02;;;;;;;4.63;3.70;;;25.90;46.70;;;;;;5014474;28;20120;-84
2022/08/14 08:15:34;;;;;;;4.45;3.60;;;25.90;46.50;;;;;;4996841;28;20425;-84
2022/08/14 08:18:03;;;;;;;4.45;3.80;;;26.00;46.60;;;;;;5014570;28;20068;-84
2022/08/14 08:20:29;;;;;;;4.63;3.90;;;26.00;46.60;;;;;;4996866;28;20030;-85
2022/08/14 08:22:57;;;;;;;4.22;3.50;;;26.00;46.50;;;;;;4996896;28;20038;-84
2022/08/14 08:25:34;;;;;;;4.22;3.63;;;26.00;46.50;;;;;;4996700;28;20026;-85
2022/08/14 08:28:01;;;;;;;4.65;3.97;;;26.10;46.50;;;;;;5014308;28;20026;-85
2022/08/14 08:30:28;;;;;;;4.53;3.67;;;26.20;46.50;;;;;;4980261;28;20109;-85
2022/08/14 08:32:55;;;;;;;4.10;3.55;;;26.20;46.40;;;;;;5013632;28;20033;-84
2022/08/14 08:35:24;;;;;;;4.70;3.78;;;26.30;46.40;;;;;;4996872;28;20245;-86
2022/08/14 08:37:52;;;;;;;4.55;3.72;;;26.30;46.30;;;;;;4981257;28;20040;-86
2022/08/14 08:40:26;;;;;;;5.03;3.88;;;26.40;46.30;;;;;;4995988;28;20113;-85
2022/08/14 08:42:52;;;;;;;4.80;3.95;;;26.40;46.30;;;;;;4996655;28;20105;-84
2022/08/14 08:45:20;;;;;;;5.00;3.92;;;26.50;46.20;;;;;;4980905;28;20053;-85
2022/08/14 08:47:46;;;;;;;4.60;3.70;;;26.60;46.20;;;;;;4979667;28;20446;-84
2022/08/14 08:50:29;;;;;;;4.35;3.65;;;26.70;46.10;;;;;;4979321;28;20038;-82
2022/08/14 08:52:57;;;;;;;5.40;3.65;;;26.70;46.10;;;;;;4997539;28;20092;-80
2022/08/14 08:55:29;;;;;;;4.80;3.50;;;26.80;46.00;;;;;;4995603;28;20018;-85
2022/08/14 08:57:57;;;;;;;4.72;3.78;;;26.90;46.10;;;;;;4996039;28;20100;-83
2022/08/14 09:00:23;;;;;;;4.13;3.40;;;27.00;46.00;;;;;;4997418;28;20022;-84
2022/08/14 09:02:58;;;;;;;4.32;3.70;;;27.10;46.00;;;;;;5017158;28;20034;-84
2022/08/14 09:05:25;;;;;;;4.57;3.50;;;27.10;45.90;;;;;;4999040;28;20129;-83
2022/08/14 09:07:53;;;;;;;3.97;3.47;;;27.20;45.90;;;;;;4999566;28;20057;-83
2022/08/14 09:10:19;;;;;;;3.92;3.22;;;27.20;45.80;;;;;;4967812;28;20034;-82
2022/08/14 09:12:46;;;;;;;4.95;3.60;;;27.40;45.80;;;;;;4983421;28;20339;-83
2022/08/14 09:15:12;;;;;;;3.92;3.30;;;27.40;45.70;;;;;;4954258;28;20030;-84
2022/08/14 09:17:38;;;;;;;4.47;3.38;;;27.50;45.80;;;;;;4983087;28;20041;-84
2022/08/14 09:20:05;;;;;;;4.35;3.20;;;27.60;45.80;;;;;;4999183;28;20030;-83
2022/08/14 09:22:30;;;;;;;4.15;3.13;;;27.60;45.70;;;;;;4999356;28;20029;-84
2022/08/14 09:24:56;;;;;;;4.25;3.35;;;27.70;45.60;;;;;;4998879;28;20369;-83
2022/08/14 09:27:22;;;;;;;3.88;3.08;;;27.80;45.60;;;;;;4968183;28;20038;-84
2022/08/14 09:29:47;;;;;;;4.43;3.47;;;27.90;45.60;;;;;;4986099;28;20030;-83
2022/08/14 09:32:26;;;;;;;4.22;3.40;;;28.00;45.60;;;;;;4971481;28;20104;-85
2022/08/14 09:35:22;;;;;;;4.40;3.47;;;28.10;45.60;;;;;;5000659;28;20030;-84
2022/08/14 09:38:14;;;;;;;4.03;3.00;;;28.20;45.60;;;;;;4982782;28;20125;-84
2022/08/14 09:40:48;;;;;;;4.30;3.25;;;28.30;45.60;;;;;;4982564;28;20144;-83
2022/08/14 09:43:50;;;;;;;4.30;3.40;;;28.40;46.10;;;;;;4998765;28;20041;-85
2022/08/14 09:46:16;;;;;;;5.07;3.28;;;28.50;45.50;;;;;;4998188;28;20041;-83
2022/08/14 09:48:42;;;;;;;3.53;3.05;;;28.60;45.30;;;;;;4999785;28;20051;-87
2022/08/14 09:51:23;;;;;;;3.40;2.90;;;28.60;45.30;;;;;;4967375;28;20042;-87
2022/08/14 09:54:06;;;;;;;3.72;3.08;;;28.80;45.50;;;;;;4999575;28;20096;-88
2022/08/14 09:56:44;;;;;;;4.00;3.13;;;28.80;45.30;;;;;;4982716;28;20442;-85
2022/08/14 09:59:13;;;;;;;4.38;3.10;;;29.00;45.40;;;;;;5015883;28;20030;-86
2022/08/14 10:01:39;;;;;;;3.95;3.30;;;29.10;45.30;;;;;;4982077;28;20465;-82
2022/08/14 10:04:22;;;;;;;3.47;2.97;;;29.10;45.20;;;;;;4981772;28;20113;-84
2022/08/14 10:06:49;;;;;;;3.70;3.10;;;29.20;45.30;;;;;;4981872;28;20045;-81
2022/08/14 10:09:15;;;;;;;4.30;3.20;;;29.30;45.10;;;;;;4981517;28;20451;-81
2022/08/14 10:11:56;;;;;;;3.35;3.00;;;29.40;45.10;;;;;;4981521;28;20042;-83
2022/08/14 10:14:24;;;;;;;4.00;3.10;;;29.50;45.20;;;;;;4998106;28;20470;-82
2022/08/14 10:16:55;;;;;;;4.20;3.10;;;29.60;45.10;;;;;;4997782;28;20030;-83
2022/08/14 10:19:24;;;;;;;3.78;3.22;;;29.70;45.10;;;;;;4981505;28;20598;-83
2022/08/14 10:22:07;;;;;;;3.25;2.80;;;29.80;45.10;;;;;;4965535;28;20076;-82
2022/08/14 10:24:40;;;;;;;3.57;2.87;;;29.90;45.10;;;;;;4997712;28;20037;-86
2022/08/14 10:27:18;;;;;;;3.65;2.78;;;30.00;45.00;;;;;;4998881;28;20075;-84
2022/08/14 10:29:52;;;;;;;3.17;2.75;;;30.10;45.10;;;;;;4982457;28;20034;-84
2022/08/14 10:32:18;;;;;;;3.95;3.15;;;30.20;45.00;;;;;;4998374;28;20033;-83
2022/08/14 10:34:45;;;;;;;3.40;3.10;;;30.30;44.90;;;;;;5015629;28;20037;-84
2022/08/14 10:37:15;;;;;;;3.75;2.92;;;30.40;44.90;;;;;;5015749;28;20470;-83
2022/08/14 10:39:43;;;;;;;3.58;2.88;;;30.50;44.90;;;;;;5002398;28;20034;-84
2022/08/14 10:42:12;;;;;;;4.35;3.08;;;30.60;44.80;;;;;;5000134;28;20064;-84
2022/08/14 10:44:41;;;;;;;3.13;2.78;;;30.70;44.80;;;;;;5019193;28;20022;-84
2022/08/14 10:47:09;;;;;;;3.38;2.83;;;30.70;44.70;;;;;;5018010;28;20080;-83
2022/08/14 10:49:49;;;;;;;3.85;3.15;;;30.90;44.70;;;;;;5015549;28;20033;-85
2022/08/14 10:52:26;;;;;;;3.75;3.10;;;31.00;44.80;;;;;;4981629;28;20088;-87
2022/08/14 10:54:52;;;;;;;3.58;2.83;;;31.00;44.70;;;;;;4998512;28;20033;-84
2022/08/14 10:57:27;;;;;;;3.55;2.80;;;31.10;44.60;;;;;;4966431;28;20033;-82
2022/08/14 10:59:58;;;;;;;3.20;2.70;;;31.20;44.70;;;;;;4981705;28;20542;-85
2022/08/14 11:02:32;;;;;;;3.35;2.80;;;31.30;44.70;;;;;;5015220;28;20113;-85
2022/08/14 11:05:11;;;;;;;;;;;31.40;44.70;;;;;;4983018;28;20123;-86
2022/08/14 11:07:39;;;;;;;2.58;2.35;;;31.40;44.50;;;;;;4998415;28;19909;-85
2022/08/14 11:10:11;;;;;;;3.20;2.65;;;31.50;44.50;;;;;;5015292;28;20037;-84
2022/08/14 11:12:45;;;;;;;3.00;2.50;;;31.60;44.60;;;;;;4981723;28;20037;-86
2022/08/14 11:15:12;;;;;;;3.08;2.60;;;31.70;44.70;;;;;;5015504;28;20439;-85
2022/08/14 11:17:37;;;;;;;3.55;2.72;;;31.70;44.60;;;;;;4997471;28;20022;-85
2022/08/14 11:20:06;;;;;;;3.47;2.63;;;31.80;44.70;;;;;;4997460;28;20030;-85
2022/08/14 11:22:33;;;;;;;2.78;2.53;;;31.80;44.70;;;;;;4997340;28;20029;-85
2022/08/14 11:25:05;;;;;;;3.20;2.70;;;31.90;44.90;;;;;;5015181;28;20032;-85
2022/08/14 11:27:32;;;;;;;3.25;2.67;;;31.90;45.00;;;;;;5015600;28;20037;-85
2022/08/14 11:30:02;;;;;;;3.00;2.60;;;32.00;45.20;;;;;;4997439;28;20482;-86
2022/08/14 11:32:29;;;;;;;3.60;2.88;;;32.10;45.40;;;;;;4997670;28;20038;-84
2022/08/14 11:34:57;;;;;;;3.45;2.80;;;32.10;45.40;;;;;;4996825;28;20026;-85
2022/08/14 11:37:23;;;;;;;3.33;2.83;;;32.10;45.30;;;;;;4982000;28;20026;-86
2022/08/14 11:39:49;;;;;;;3.20;2.65;;;32.20;45.50;;;;;;4965114;28;20488;-85
2022/08/14 11:42:26;;;;;;;2.97;2.65;;;32.20;45.50;;;;;;5014952;28;20026;-85
2022/08/14 11:45:04;;;;;;;2.95;2.63;;;32.20;45.80;;;;;;4983302;28;20029;-84
2022/08/14 11:47:35;;;;;;;2.65;2.40;;;32.30;46.00;;;;;;4999398;28;20060;-85
2022/08/14 11:50:22;;;;;;;2.90;2.47;;;32.30;46.00;;;;;;5026295;28;20042;-85
2022/08/14 11:52:48;;;;;;;2.80;2.50;;;32.30;46.10;;;;;;5003619;28;20038;-85
2022/08/14 11:55:14;;;;;;;3.10;2.72;;;32.30;46.00;;;;;;4986661;28;20036;-85
2022/08/14 11:57:42;;;;;;;3.22;2.70;;;32.40;46.00;;;;;;5016507;28;20030;-85
2022/08/14 12:00:17;;;;;;;3.17;2.88;;;32.40;46.00;;;;;;4981445;28;20026;-85
2022/08/14 12:02:56;;;;;;;3.05;2.33;;;32.40;45.90;;;;;;4997758;28;20034;-84
2022/08/14 12:05:33;;;;;;;2.92;2.60;;;32.50;46.00;;;;;;4997569;28;20124;-86
2022/08/14 12:08:01;;;;;;;3.30;2.42;;;32.50;45.90;;;;;;4981637;28;20073;-85
2022/08/14 12:10:28;;;;;;;3.53;2.67;;;32.50;45.90;;;;;;4996748;28;20030;-86
2022/08/14 12:12:55;;;;;;;3.50;2.88;;;32.50;45.80;;;;;;4981401;28;20037;-86
2022/08/14 12:15:37;;;;;;;3.05;2.75;;;32.60;45.80;;;;;;4996970;28;20034;-86
2022/08/14 12:18:03;;;;;;;2.75;2.50;;;32.60;45.80;;;;;;4966234;28;20336;-86
2022/08/14 12:20:32;;;;;;;3.20;2.80;;;32.60;45.70;;;;;;5015950;28;20034;-87
2022/08/14 12:23:04;;;;;;;3.28;2.70;;;32.60;45.60;;;;;;4999614;28;20021;-88
2022/08/14 12:25:31;;;;;;;3.17;2.80;;;32.60;45.60;;;;;;4981082;28;20030;-87
2022/08/14 12:28:00;;;;;;;2.97;2.67;;;32.70;45.60;;;;;;4980752;28;20029;-86
2022/08/14 12:30:41;;;;;;;3.45;2.90;;;32.60;45.50;;;;;;4997102;28;20033;-84
2022/08/14 12:33:24;;;;;;;3.08;2.67;;;32.70;45.50;;;;;;4997163;28;20037;-87
2022/08/14 12:35:56;;;;;;;4.53;2.90;;;32.70;45.40;;;;;;5000591;28;20030;-88
2022/08/14 12:38:44;;;;;;;2.63;2.38;;;32.70;45.30;;;;;;5001495;28;20113;-87
2022/08/14 12:41:19;;;;;;;3.15;2.60;;;32.70;45.40;;;;;;4990438;28;20048;-85
2022/08/14 12:43:56;;;;;;;2.55;2.35;;;32.70;45.30;;;;;;4991688;28;20124;-85
2022/08/14 12:46:26;;;;;;;3.13;2.67;;;32.70;45.20;;;;;;5000785;28;20042;-85
2022/08/14 12:48:53;;;;;;;3.10;2.50;;;32.80;45.20;;;;;;5019047;28;20032;-85
2022/08/14 12:51:21;;;;;;;2.88;2.60;;;32.80;45.20;;;;;;5001065;28;20049;-85
2022/08/14 12:53:47;;;;;;;3.05;2.63;;;32.80;45.10;;;;;;5001045;28;20099;-85
2022/08/14 12:56:17;;;;;;;3.13;2.55;;;32.80;45.00;;;;;;5001461;28;20034;-82
2022/08/14 12:58:57;;;;;;;3.63;3.00;;;32.80;44.90;;;;;;5009301;28;20056;-84
2022/08/14 13:01:28;;;;;;;2.80;2.50;;;32.90;44.80;;;;;;5009453;28;20095;-85
2022/08/14 13:04:07;;;;;;;3.55;2.80;;;32.90;44.70;;;;;;4969021;28;20026;-84
2022/08/14 13:06:35;;;;;;;2.95;2.65;;;32.90;44.70;;;;;;4985568;28;20030;-85
2022/08/14 13:09:02;;;;;;;2.65;2.42;;;32.90;44.60;;;;;;5000637;28;20026;-84
2022/08/14 13:11:36;;;;;;;3.22;2.65;;;32.90;44.50;;;;;;5000285;28;20030;-85